臺北飛航情報區 - 海峽席

METAR RCTP 170500Z 07020KT 9999 FEW020 SCT030 34/25 Q1000 WS ALL RWY NOSIG RMK QFF 1000.2HPA A2954(W)=

站台狀態:Online
最後更新:2019-07-17 13:00:02